createdAt,value
2019-03-31T00:01:11.689Z,17.07
2019-03-31T00:03:42.271Z,17.23
2019-03-31T00:06:13.347Z,16.73
2019-03-31T00:08:44.054Z,16.77
2019-03-31T00:11:15.281Z,16.87
2019-03-31T00:13:46.220Z,16.00
2019-03-31T00:16:17.179Z,16.95
2019-03-31T00:18:48.040Z,15.67
2019-03-31T00:21:18.726Z,16.77
2019-03-31T00:23:50.125Z,17.30
2019-03-31T00:26:21.499Z,16.32
2019-03-31T00:28:52.079Z,15.93
2019-03-31T00:31:22.915Z,16.40
2019-03-31T00:33:53.641Z,16.87
2019-03-31T00:36:24.280Z,15.90
2019-03-31T00:38:55.120Z,15.37
2019-03-31T00:41:25.743Z,14.97
2019-03-31T00:43:56.474Z,15.60
2019-03-31T00:46:27.309Z,15.70
2019-03-31T00:48:58.133Z,15.57
2019-03-31T00:51:28.762Z,16.00
2019-03-31T00:53:59.339Z,15.80
2019-03-31T00:56:30.204Z,16.03
2019-03-31T00:59:00.791Z,15.67
2019-03-31T01:01:46.755Z,15.38
2019-03-31T01:04:23.395Z,14.03
2019-03-31T01:06:55.730Z,15.20
2019-03-31T01:09:33.367Z,14.77
2019-03-31T01:12:05.115Z,15.57
2019-03-31T01:14:35.759Z,14.67
2019-03-31T01:17:11.377Z,14.67
2019-03-31T01:19:42.545Z,14.87
2019-03-31T01:22:13.168Z,14.20
2019-03-31T01:24:44.041Z,13.53
2019-03-31T01:27:15.353Z,15.00
2019-03-31T01:29:46.002Z,14.20
2019-03-31T01:32:17.603Z,14.73
2019-03-31T01:34:48.378Z,13.50
2019-03-31T01:37:20.273Z,14.10
2019-03-31T01:39:51.921Z,14.00
2019-03-31T01:42:23.470Z,13.27
2019-03-31T01:44:55.502Z,13.33
2019-03-31T01:47:26.426Z,14.30
2019-03-31T01:49:57.127Z,13.67
2019-03-31T01:52:27.731Z,13.70
2019-03-31T01:54:58.542Z,13.13
2019-03-31T01:57:29.319Z,13.33
2019-03-31T01:59:59.877Z,13.83
2019-03-31T02:02:31.030Z,14.43
2019-03-31T02:05:03.366Z,13.48
2019-03-31T02:07:34.759Z,13.47
2019-03-31T02:10:07.811Z,13.80
2019-03-31T02:12:38.626Z,13.00
2019-03-31T02:15:09.848Z,13.83
2019-03-31T02:17:40.742Z,13.33
2019-03-31T02:20:11.673Z,14.20
2019-03-31T02:22:42.285Z,12.93
2019-03-31T02:25:13.127Z,13.13
2019-03-31T02:27:43.768Z,11.90
2019-03-31T02:30:15.179Z,13.55
2019-03-31T02:32:45.763Z,13.27
2019-03-31T02:35:16.446Z,13.30
2019-03-31T02:37:47.062Z,12.63
2019-03-31T02:40:17.913Z,12.73
2019-03-31T02:42:48.816Z,12.73
2019-03-31T02:45:19.243Z,13.60
2019-03-31T02:47:49.863Z,12.87
2019-03-31T02:50:45.993Z,11.40
2019-03-31T02:53:17.707Z,12.60
2019-03-31T02:55:48.584Z,12.10
2019-03-31T02:58:20.732Z,12.03
2019-03-31T03:00:51.331Z,12.40
2019-03-31T03:03:22.338Z,12.23
2019-03-31T03:05:56.563Z,11.70
2019-03-31T03:08:28.594Z,11.93
2019-03-31T03:11:01.593Z,12.03
2019-03-31T03:13:34.860Z,12.10
2019-03-31T03:16:19.049Z,10.50
2019-03-31T03:18:49.921Z,11.77
2019-03-31T03:21:23.960Z,12.27
2019-03-31T03:23:54.019Z,12.13
2019-03-31T03:26:25.361Z,12.23
2019-03-31T03:28:56.012Z,11.20
2019-03-31T03:31:26.628Z,11.57
2019-03-31T03:33:57.257Z,11.83
2019-03-31T03:36:28.076Z,11.30
2019-03-31T03:38:58.708Z,12.77
2019-03-31T03:41:29.426Z,11.43
2019-03-31T03:44:02.453Z,11.57
2019-03-31T03:46:32.799Z,12.40
2019-03-31T03:49:03.434Z,13.50
2019-03-31T03:51:34.342Z,14.17
2019-03-31T03:54:05.202Z,12.30
2019-03-31T03:56:36.081Z,12.67
2019-03-31T03:59:07.274Z,11.53
2019-03-31T04:01:38.116Z,12.80
2019-03-31T04:04:10.130Z,12.43
2019-03-31T04:06:40.799Z,11.23
2019-03-31T04:09:11.435Z,11.60
2019-03-31T04:11:42.078Z,12.47
2019-03-31T04:14:12.737Z,12.10
2019-03-31T04:16:43.254Z,11.60
2019-03-31T04:19:14.385Z,11.40
2019-03-31T04:21:45.448Z,12.33
2019-03-31T04:24:16.339Z,11.97
2019-03-31T04:26:47.166Z,12.77
2019-03-31T04:29:17.638Z,11.50
2019-03-31T04:31:48.511Z,11.50
2019-03-31T04:34:19.357Z,10.60
2019-03-31T04:36:50.156Z,12.07
2019-03-31T04:39:20.741Z,11.50
2019-03-31T04:41:51.408Z,12.40
2019-03-31T04:44:22.257Z,12.00
2019-03-31T04:46:52.810Z,10.93
2019-03-31T04:49:23.557Z,11.00
2019-03-31T04:51:54.265Z,10.60
2019-03-31T04:54:24.875Z,12.03
2019-03-31T04:56:55.445Z,11.60
2019-03-31T04:59:26.443Z,11.30
2019-03-31T05:01:57.289Z,12.20
2019-03-31T05:04:27.904Z,12.43
2019-03-31T05:06:58.574Z,13.67
2019-03-31T05:09:29.426Z,13.10
2019-03-31T05:12:00.066Z,12.37
2019-03-31T05:14:30.747Z,12.73
2019-03-31T05:17:01.492Z,14.23
2019-03-31T05:19:32.048Z,15.23
2019-03-31T05:22:03.957Z,15.83
2019-03-31T05:24:34.630Z,14.50
2019-03-31T05:27:05.631Z,15.77
2019-03-31T05:29:36.794Z,13.80
2019-03-31T05:32:07.588Z,11.97
2019-03-31T05:34:38.416Z,11.80
2019-03-31T05:37:08.994Z,13.20
2019-03-31T05:39:39.612Z,12.50
2019-03-31T05:42:10.550Z,11.50
2019-03-31T05:44:41.218Z,12.53
2019-03-31T05:47:11.767Z,12.20
2019-03-31T05:49:42.520Z,12.13
2019-03-31T05:52:13.088Z,11.23
2019-03-31T05:54:43.800Z,13.30
2019-03-31T05:57:14.707Z,12.55
2019-03-31T05:59:45.549Z,12.03
2019-03-31T06:02:16.211Z,11.10
2019-03-31T06:04:46.810Z,12.30
2019-03-31T06:07:17.720Z,11.15
2019-03-31T06:09:48.651Z,10.93
2019-03-31T06:12:19.577Z,12.07
2019-03-31T06:14:50.204Z,11.17
2019-03-31T06:17:21.232Z,11.73
2019-03-31T06:19:51.891Z,11.60
2019-03-31T06:22:22.813Z,10.67
2019-03-31T06:24:53.700Z,10.50
2019-03-31T06:27:24.312Z,10.63
2019-03-31T06:29:54.914Z,10.60
2019-03-31T06:32:25.788Z,10.50
2019-03-31T06:34:56.761Z,8.97
2019-03-31T06:37:30.084Z,10.53
2019-03-31T06:40:00.823Z,11.33
2019-03-31T06:42:31.713Z,9.90
2019-03-31T06:45:03.319Z,10.87
2019-03-31T06:47:33.907Z,11.40
2019-03-31T06:50:06.112Z,11.87
2019-03-31T06:52:36.826Z,10.57
2019-03-31T06:55:07.988Z,11.10
2019-03-31T06:57:38.823Z,11.70
2019-03-31T07:00:10.813Z,10.88
2019-03-31T07:02:41.400Z,10.20
2019-03-31T07:05:12.087Z,11.17
2019-03-31T07:07:42.779Z,11.40
2019-03-31T07:10:13.416Z,9.03
2019-03-31T07:12:43.990Z,11.20
2019-03-31T07:15:17.850Z,12.03
2019-03-31T07:17:48.455Z,10.80
2019-03-31T07:20:19.440Z,10.10
2019-03-31T07:22:50.122Z,10.93
2019-03-31T07:25:21.050Z,9.30
2019-03-31T07:27:51.913Z,10.90
2019-03-31T07:30:24.706Z,9.10
2019-03-31T07:32:55.415Z,10.87
2019-03-31T07:35:26.085Z,9.53
2019-03-31T07:37:56.919Z,11.30
2019-03-31T07:40:27.705Z,11.00
2019-03-31T07:42:58.376Z,12.80
2019-03-31T07:45:28.935Z,12.03
2019-03-31T07:47:59.614Z,11.53
2019-03-31T07:50:30.218Z,11.17
2019-03-31T07:53:01.083Z,10.37
2019-03-31T07:55:31.715Z,11.60
2019-03-31T07:58:02.451Z,12.60
2019-03-31T08:00:33.218Z,10.30
2019-03-31T08:03:04.267Z,12.77
2019-03-31T08:05:37.701Z,12.50
2019-03-31T08:08:07.438Z,11.83
2019-03-31T08:10:38.055Z,11.10
2019-03-31T08:13:08.731Z,9.97
2019-03-31T08:15:39.451Z,13.33
2019-03-31T08:18:10.432Z,12.87
2019-03-31T08:20:41.160Z,10.00
2019-03-31T08:23:11.880Z,11.37
2019-03-31T08:25:42.685Z,10.40
2019-03-31T08:28:13.630Z,11.30
2019-03-31T08:30:44.406Z,8.87
2019-03-31T08:33:15.318Z,12.23
2019-03-31T08:35:47.525Z,14.40
2019-03-31T08:38:19.650Z,13.17
2019-03-31T08:40:50.510Z,13.73
2019-03-31T08:43:21.324Z,12.50
2019-03-31T08:45:51.918Z,12.97
2019-03-31T08:48:22.777Z,13.40
2019-03-31T08:50:53.468Z,13.07
2019-03-31T08:53:24.386Z,11.47
2019-03-31T08:55:54.998Z,13.97
2019-03-31T08:58:25.644Z,15.43
2019-03-31T09:01:00.452Z,13.20
2019-03-31T09:03:50.197Z,12.50
2019-03-31T09:06:21.010Z,15.93
2019-03-31T09:08:51.671Z,15.70
2019-03-31T09:11:22.654Z,14.10
2019-03-31T09:13:53.399Z,13.27
2019-03-31T09:16:24.067Z,12.20
2019-03-31T09:18:54.735Z,16.10
2019-03-31T09:21:25.484Z,12.77
2019-03-31T09:23:56.108Z,13.30
2019-03-31T09:26:26.957Z,15.80
2019-03-31T09:28:57.551Z,14.13
2019-03-31T09:31:29.399Z,13.13
2019-03-31T09:34:00.006Z,16.17
2019-03-31T09:36:30.710Z,16.43
2019-03-31T09:39:01.637Z,16.27
2019-03-31T09:41:33.612Z,16.77
2019-03-31T09:44:05.000Z,14.33
2019-03-31T09:46:35.632Z,12.17
2019-03-31T09:49:06.313Z,13.70
2019-03-31T09:51:37.013Z,13.90
2019-03-31T09:54:07.791Z,14.43
2019-03-31T09:56:38.646Z,13.87
2019-03-31T09:59:10.667Z,13.63
2019-03-31T10:01:41.564Z,12.10
2019-03-31T10:04:12.266Z,11.57
2019-03-31T10:06:43.294Z,11.90
2019-03-31T10:09:14.071Z,11.40
2019-03-31T10:11:44.757Z,10.37
2019-03-31T10:14:15.654Z,11.38
2019-03-31T10:16:46.276Z,12.60
2019-03-31T10:19:16.969Z,11.60
2019-03-31T10:21:47.715Z,11.53
2019-03-31T10:24:18.358Z,10.60
2019-03-31T10:26:49.045Z,11.03
2019-03-31T10:29:19.828Z,11.17
2019-03-31T10:31:50.887Z,10.67
2019-03-31T10:34:21.849Z,10.80
2019-03-31T10:36:52.745Z,10.47
2019-03-31T10:39:23.966Z,11.03
2019-03-31T10:41:55.266Z,11.10
2019-03-31T10:44:25.968Z,13.17
2019-03-31T10:46:58.455Z,12.90
2019-03-31T10:49:29.194Z,9.90
2019-03-31T10:51:59.853Z,10.50
2019-03-31T10:54:30.787Z,10.23
2019-03-31T10:57:01.426Z,10.70
2019-03-31T10:59:32.032Z,11.50
2019-03-31T11:02:02.888Z,10.80
2019-03-31T11:04:33.574Z,11.67
2019-03-31T11:07:05.207Z,10.72
2019-03-31T11:09:36.034Z,11.27
2019-03-31T11:12:06.946Z,10.80
2019-03-31T11:14:37.658Z,9.13
2019-03-31T11:17:08.456Z,8.93
2019-03-31T11:19:39.042Z,9.60
2019-03-31T11:22:29.134Z,10.20
2019-03-31T11:25:00.396Z,9.07
2019-03-31T11:27:31.049Z,9.93
2019-03-31T11:30:01.930Z,9.30
2019-03-31T11:32:34.023Z,8.50
2019-03-31T11:35:05.598Z,8.25
2019-03-31T11:37:36.217Z,8.23
2019-03-31T11:40:08.479Z,8.80
2019-03-31T11:42:39.086Z,8.80
2019-03-31T11:45:10.481Z,8.40
2019-03-31T11:47:41.096Z,8.17
2019-03-31T11:50:12.429Z,8.35
2019-03-31T11:52:43.075Z,10.40
2019-03-31T11:55:13.681Z,9.30
2019-03-31T11:57:44.288Z,8.03
2019-03-31T12:00:17.359Z,8.70
2019-03-31T12:02:48.125Z,10.63
2019-03-31T12:05:19.250Z,10.13
2019-03-31T12:07:50.031Z,8.60
2019-03-31T12:10:20.746Z,9.03
2019-03-31T12:12:51.362Z,9.30
2019-03-31T12:15:22.102Z,8.63
2019-03-31T12:17:52.797Z,9.10
2019-03-31T12:20:23.587Z,8.47
2019-03-31T12:22:54.248Z,8.23
2019-03-31T12:25:24.870Z,8.60
2019-03-31T12:27:55.495Z,7.97
2019-03-31T12:30:29.413Z,10.50
2019-03-31T12:33:00.209Z,7.70
2019-03-31T12:35:30.842Z,9.10
2019-03-31T12:38:01.555Z,8.00
2019-03-31T12:40:33.779Z,9.60
2019-03-31T12:43:06.432Z,10.70
2019-03-31T12:45:37.283Z,8.77
2019-03-31T12:48:07.892Z,8.93
2019-03-31T12:50:38.474Z,8.93
2019-03-31T12:53:09.433Z,11.50
2019-03-31T12:55:40.325Z,9.67
2019-03-31T12:58:11.479Z,8.03
2019-03-31T13:00:42.228Z,8.10
2019-03-31T13:03:16.004Z,8.07
2019-03-31T13:05:45.293Z,8.53
2019-03-31T13:08:15.934Z,9.57
2019-03-31T13:10:46.572Z,8.77
2019-03-31T13:13:17.572Z,9.30
2019-03-31T13:15:48.430Z,8.73
2019-03-31T13:18:19.127Z,9.53
2019-03-31T13:20:50.258Z,9.10
2019-03-31T13:23:20.934Z,8.97
2019-03-31T13:25:51.626Z,9.37
2019-03-31T13:28:25.495Z,9.40
2019-03-31T13:30:56.306Z,10.43
2019-03-31T13:33:27.018Z,11.07
2019-03-31T13:35:57.613Z,10.20
2019-03-31T13:38:28.439Z,9.93
2019-03-31T13:40:59.020Z,11.37
2019-03-31T13:43:29.944Z,10.07
2019-03-31T13:46:01.286Z,9.57
2019-03-31T13:48:32.249Z,10.57
2019-03-31T13:51:02.846Z,9.37
2019-03-31T13:53:33.544Z,10.97
2019-03-31T13:56:05.142Z,12.23
2019-03-31T13:58:36.478Z,11.50
2019-03-31T14:01:08.279Z,11.37
2019-03-31T14:03:38.961Z,14.80
2019-03-31T14:06:09.757Z,12.80
2019-03-31T14:08:41.696Z,12.37
2019-03-31T14:11:12.718Z,12.03
2019-03-31T14:13:43.548Z,11.37
2019-03-31T14:16:14.422Z,11.50
2019-03-31T14:18:45.034Z,11.33
2019-03-31T14:21:15.702Z,11.87
2019-03-31T14:23:46.581Z,11.20
2019-03-31T14:26:17.308Z,11.10
2019-03-31T14:28:47.976Z,14.67
2019-03-31T14:31:18.743Z,13.23
2019-03-31T14:33:49.689Z,12.67
2019-03-31T14:36:20.275Z,11.07
2019-03-31T14:38:50.910Z,11.77
2019-03-31T14:41:23.161Z,12.10
2019-03-31T14:43:53.839Z,13.20
2019-03-31T14:46:24.817Z,12.67
2019-03-31T14:48:55.706Z,12.53
2019-03-31T14:51:26.399Z,12.43
2019-03-31T14:53:57.220Z,14.10
2019-03-31T14:56:27.906Z,10.63
2019-03-31T14:58:58.825Z,11.47
2019-03-31T15:01:29.716Z,12.20
2019-03-31T15:04:01.868Z,11.70
2019-03-31T15:06:32.743Z,11.00
2019-03-31T15:09:05.835Z,11.47
2019-03-31T15:11:36.669Z,13.10
2019-03-31T15:14:07.321Z,11.70
2019-03-31T15:16:37.937Z,10.63
2019-03-31T15:19:08.827Z,9.03
2019-03-31T15:21:44.068Z,12.03
2019-03-31T15:24:12.139Z,10.37
2019-03-31T15:26:42.879Z,12.47
2019-03-31T15:29:14.106Z,11.95
2019-03-31T15:31:44.942Z,14.23
2019-03-31T15:34:15.850Z,14.20
2019-03-31T15:36:46.454Z,14.63
2019-03-31T15:39:17.203Z,13.70
2019-03-31T15:41:47.833Z,14.00
2019-03-31T15:44:18.465Z,12.67
2019-03-31T15:46:49.263Z,13.23
2019-03-31T15:49:20.083Z,12.90
2019-03-31T15:51:51.021Z,13.17
2019-03-31T15:54:21.627Z,11.95
2019-03-31T15:56:52.332Z,15.17
2019-03-31T15:59:23.092Z,12.83
2019-03-31T16:01:53.996Z,13.17
2019-03-31T16:04:24.700Z,13.00
2019-03-31T16:06:55.635Z,12.60
2019-03-31T16:09:25.817Z,11.50
2019-03-31T16:11:56.119Z,12.27
2019-03-31T16:14:26.443Z,10.73
2019-03-31T16:16:56.510Z,12.77
2019-03-31T16:19:26.707Z,15.17
2019-03-31T16:21:56.767Z,11.73
2019-03-31T16:24:42.764Z,10.67
2019-03-31T16:27:13.267Z,12.50
2019-03-31T16:29:43.904Z,11.83
2019-03-31T16:32:14.031Z,10.73
2019-03-31T16:34:44.214Z,12.13
2019-03-31T16:37:14.815Z,12.10
2019-03-31T16:39:45.143Z,11.80
2019-03-31T16:42:17.016Z,11.47
2019-03-31T16:44:58.088Z,11.50
2019-03-31T16:47:19.198Z,12.73
2019-03-31T16:49:50.936Z,11.30
2019-03-31T16:52:21.393Z,12.43
2019-03-31T16:54:51.797Z,12.67
2019-03-31T16:57:23.055Z,10.27
2019-03-31T16:59:53.141Z,11.90
2019-03-31T17:02:23.341Z,14.73
2019-03-31T17:04:54.178Z,10.50
2019-03-31T17:07:24.335Z,11.30
2019-03-31T17:09:54.867Z,13.20
2019-03-31T17:12:25.003Z,11.90
2019-03-31T17:14:55.157Z,13.00
2019-03-31T17:17:25.467Z,12.47
2019-03-31T17:19:55.894Z,12.70
2019-03-31T17:22:25.986Z,11.60
2019-03-31T17:24:56.685Z,13.90
2019-03-31T17:27:26.881Z,14.27
2019-03-31T17:29:56.960Z,12.43
2019-03-31T17:32:27.553Z,12.10
2019-03-31T17:34:58.002Z,13.23
2019-03-31T17:37:28.371Z,14.23
2019-03-31T17:40:06.053Z,12.40
2019-03-31T17:42:32.557Z,14.20
2019-03-31T17:45:03.049Z,13.60
2019-03-31T17:47:33.236Z,13.13
2019-03-31T17:50:03.409Z,13.73
2019-03-31T17:52:33.861Z,12.77
2019-03-31T17:55:04.545Z,14.07
2019-03-31T17:57:35.024Z,13.40
2019-03-31T18:00:07.874Z,13.28
2019-03-31T18:02:38.372Z,12.80
2019-03-31T18:05:08.849Z,14.70
2019-03-31T18:07:40.342Z,15.00
2019-03-31T18:10:20.806Z,15.60
2019-03-31T18:12:42.307Z,15.17
2019-03-31T18:15:12.747Z,14.60
2019-03-31T18:17:43.365Z,15.40
2019-03-31T18:20:13.493Z,15.80
2019-03-31T18:22:43.691Z,14.90
2019-03-31T18:25:14.159Z,15.23
2019-03-31T18:27:44.342Z,15.10
2019-03-31T18:30:15.492Z,15.43
2019-03-31T18:32:45.667Z,14.43
2019-03-31T18:35:16.884Z,15.03
2019-03-31T18:37:47.284Z,14.07
2019-03-31T18:40:17.561Z,14.87
2019-03-31T18:42:49.848Z,14.63
2019-03-31T18:45:20.276Z,12.47
2019-03-31T18:47:52.337Z,14.13
2019-03-31T18:50:22.602Z,15.40
2019-03-31T18:52:52.807Z,13.50
2019-03-31T18:55:48.409Z,14.30
2019-03-31T18:58:41.159Z,13.47
2019-03-31T19:01:29.305Z,14.20
2019-03-31T19:04:30.681Z,14.43
2019-03-31T19:07:31.875Z,12.93
2019-03-31T19:10:24.562Z,13.57
2019-03-31T19:13:11.946Z,13.60
2019-03-31T19:16:02.008Z,14.33
2019-03-31T19:18:58.080Z,13.43
2019-03-31T19:21:50.359Z,13.90
2019-03-31T19:24:46.249Z,14.83
2019-03-31T19:27:27.745Z,14.07
2019-03-31T19:30:05.430Z,14.60
2019-03-31T19:32:47.412Z,14.23
2019-03-31T19:35:35.293Z,14.30
2019-03-31T19:38:18.358Z,13.47
2019-03-31T19:41:09.086Z,14.57
2019-03-31T19:43:50.851Z,13.80
2019-03-31T19:46:28.572Z,14.07
2019-03-31T19:49:17.794Z,14.70
2019-03-31T19:52:18.937Z,14.67
2019-03-31T19:55:11.612Z,15.53
2019-03-31T19:57:59.667Z,14.63
2019-03-31T20:00:49.097Z,14.60
2019-03-31T20:03:41.887Z,12.93
2019-03-31T20:06:40.733Z,15.50
2019-03-31T20:09:29.900Z,11.90
2019-03-31T20:12:25.523Z,15.67
2019-03-31T20:15:17.551Z,15.23
2019-03-31T20:18:05.635Z,14.97
2019-03-31T20:21:01.068Z,14.80
2019-03-31T20:23:41.894Z,15.80
2019-03-31T20:26:25.330Z,15.07
2019-03-31T20:29:26.759Z,15.70
2019-03-31T20:32:15.930Z,15.03
2019-03-31T20:35:05.055Z,14.33
2019-03-31T20:37:54.204Z,14.00
2019-03-31T20:40:59.063Z,14.85
2019-03-31T20:43:36.495Z,15.17
2019-03-31T20:46:06.904Z,14.70
2019-03-31T20:48:37.193Z,14.90
2019-03-31T20:51:07.301Z,15.30
2019-03-31T20:53:37.624Z,16.30
2019-03-31T20:56:07.790Z,16.30
2019-03-31T20:58:38.089Z,14.40
2019-03-31T21:01:10.077Z,16.13
2019-03-31T21:03:40.251Z,15.33
2019-03-31T21:06:10.982Z,14.85
2019-03-31T21:08:41.059Z,15.93
2019-03-31T21:11:11.130Z,16.40
2019-03-31T21:13:41.415Z,14.43
2019-03-31T21:16:11.822Z,15.97
2019-03-31T21:18:42.386Z,15.27
2019-03-31T21:21:12.796Z,15.65
2019-03-31T21:23:42.985Z,15.90
2019-03-31T21:26:13.276Z,16.43
2019-03-31T21:28:43.454Z,17.30
2019-03-31T21:31:13.827Z,17.80
2019-03-31T21:33:43.895Z,17.23
2019-03-31T21:36:13.952Z,17.90
2019-03-31T21:38:44.028Z,18.27
2019-03-31T21:41:14.470Z,17.37
2019-03-31T21:43:44.777Z,17.27
2019-03-31T21:46:14.942Z,16.77
2019-03-31T21:48:45.002Z,15.63
2019-03-31T21:51:15.160Z,16.40
2019-03-31T21:53:45.335Z,17.17
2019-03-31T21:56:15.378Z,17.03
2019-03-31T21:58:45.448Z,15.40
2019-03-31T22:01:16.129Z,15.57
2019-03-31T22:03:46.336Z,16.17
2019-03-31T22:06:16.372Z,14.87
2019-03-31T22:08:46.454Z,16.60
2019-03-31T22:11:16.577Z,17.60
2019-03-31T22:13:46.996Z,17.47
2019-03-31T22:16:17.147Z,17.03
2019-03-31T22:18:47.288Z,17.13
2019-03-31T22:21:17.400Z,16.67
2019-03-31T22:23:57.359Z,16.10
2019-03-31T22:26:19.960Z,17.30
2019-03-31T22:28:50.266Z,16.27
2019-03-31T22:31:21.195Z,15.80
2019-03-31T22:33:51.240Z,16.73
2019-03-31T22:36:21.436Z,16.20
2019-03-31T22:38:52.789Z,17.33
2019-03-31T22:41:23.233Z,15.57
2019-03-31T22:43:53.327Z,16.90
2019-03-31T22:46:23.485Z,15.33
2019-03-31T22:48:55.107Z,16.97
2019-03-31T22:51:25.464Z,16.00
2019-03-31T22:53:55.856Z,18.30
2019-03-31T22:56:26.211Z,16.10
2019-03-31T22:58:56.246Z,17.27
2019-03-31T23:01:26.333Z,16.70
2019-03-31T23:03:56.536Z,17.77
2019-03-31T23:06:26.583Z,17.20
2019-03-31T23:08:56.709Z,17.63
2019-03-31T23:11:27.305Z,17.13
2019-03-31T23:13:57.375Z,17.33
2019-03-31T23:16:27.530Z,17.47
2019-03-31T23:18:57.584Z,16.90
2019-03-31T23:21:27.651Z,17.30
2019-03-31T23:23:57.815Z,15.47
2019-03-31T23:26:28.141Z,16.20
2019-03-31T23:28:58.215Z,15.33
2019-03-31T23:31:28.350Z,15.53
2019-03-31T23:33:59.854Z,16.53
2019-03-31T23:36:30.277Z,13.20
2019-03-31T23:39:00.301Z,15.53
2019-03-31T23:41:30.444Z,16.33
2019-03-31T23:44:00.549Z,15.17
2019-03-31T23:46:31.738Z,15.80
2019-03-31T23:49:01.965Z,16.93
2019-03-31T23:51:32.269Z,16.70
2019-03-31T23:54:02.520Z,15.50
2019-03-31T23:56:32.795Z,16.30
2019-03-31T23:59:03.955Z,15.47
